sensor_id;sensor_type;location;lat;lon;timestamp;pressure;altitude;pressure_sealevel;temperature;humidity
73240;BME280;61452;40.054;4.110;2023-09-07T00:04:05;101916.44;;;26.38;100.00
73240;BME280;61452;40.054;4.110;2023-09-07T00:09:08;101910.91;;;26.39;100.00
73240;BME280;61452;40.054;4.110;2023-09-07T00:14:11;101901.28;;;26.37;100.00
73240;BME280;61452;40.054;4.110;2023-09-07T00:19:13;101914.91;;;26.35;100.00
73240;BME280;61452;40.054;4.110;2023-09-07T00:24:15;101912.22;;;26.35;100.00
73240;BME280;61452;40.054;4.110;2023-09-07T00:29:18;101897.22;;;26.33;100.00
73240;BME280;61452;40.054;4.110;2023-09-07T00:34:20;101896.91;;;26.36;100.00
73240;BME280;61452;40.054;4.110;2023-09-07T00:39:23;101893.38;;;26.35;100.00
73240;BME280;61452;40.054;4.110;2023-09-07T00:44:25;101889.13;;;26.33;100.00
73240;BME280;61452;40.054;4.110;2023-09-07T00:49:28;101887.31;;;26.33;100.00
73240;BME280;61452;40.054;4.110;2023-09-07T00:54:31;101884.59;;;26.33;100.00
73240;BME280;61452;40.054;4.110;2023-09-07T00:59:34;101880.06;;;26.34;100.00
73240;BME280;61452;40.054;4.110;2023-09-07T01:04:37;101874.56;;;26.35;100.00
73240;BME280;61452;40.054;4.110;2023-09-07T01:09:40;101863.94;;;26.34;100.00
73240;BME280;61452;40.054;4.110;2023-09-07T01:14:44;101864.06;;;26.32;100.00
73240;BME280;61452;40.054;4.110;2023-09-07T01:19:48;101871.88;;;26.35;100.00
73240;BME280;61452;40.054;4.110;2023-09-07T01:24:55;101869.78;;;26.29;100.00
73240;BME280;61452;40.054;4.110;2023-09-07T01:29:57;101866.22;;;26.29;100.00
73240;BME280;61452;40.054;4.110;2023-09-07T01:35:01;101859.69;;;26.31;100.00
73240;BME280;61452;40.054;4.110;2023-09-07T01:40:06;101850.75;;;26.31;100.00
73240;BME280;61452;40.054;4.110;2023-09-07T01:45:09;101860.16;;;26.27;100.00
73240;BME280;61452;40.054;4.110;2023-09-07T01:50:11;101863.69;;;26.27;100.00
73240;BME280;61452;40.054;4.110;2023-09-07T01:55:16;101859.28;;;26.26;100.00
73240;BME280;61452;40.054;4.110;2023-09-07T02:00:18;101863.97;;;26.24;100.00
73240;BME280;61452;40.054;4.110;2023-09-07T02:05:21;101860.84;;;26.29;100.00
73240;BME280;61452;40.054;4.110;2023-09-07T02:10:23;101847.41;;;26.29;100.00
73240;BME280;61452;40.054;4.110;2023-09-07T02:15:25;101854.63;;;26.28;100.00
73240;BME280;61452;40.054;4.110;2023-09-07T02:20:28;101852.78;;;26.29;100.00
73240;BME280;61452;40.054;4.110;2023-09-07T02:25:30;101854.06;;;26.25;100.00
73240;BME280;61452;40.054;4.110;2023-09-07T02:30:32;101850.38;;;26.26;100.00
73240;BME280;61452;40.054;4.110;2023-09-07T02:35:37;101850.09;;;26.29;100.00
73240;BME280;61452;40.054;4.110;2023-09-07T02:40:41;101842.44;;;26.24;100.00
73240;BME280;61452;40.054;4.110;2023-09-07T02:45:44;101833.25;;;26.27;100.00
73240;BME280;61452;40.054;4.110;2023-09-07T02:50:48;101837.63;;;26.28;100.00
73240;BME280;61452;40.054;4.110;2023-09-07T02:55:55;101838.78;;;26.25;100.00
73240;BME280;61452;40.054;4.110;2023-09-07T03:00:58;101837.06;;;26.24;100.00
73240;BME280;61452;40.054;4.110;2023-09-07T03:06:11;101833.38;;;26.25;100.00
73240;BME280;61452;40.054;4.110;2023-09-07T03:11:17;101831.69;;;26.24;100.00
73240;BME280;61452;40.054;4.110;2023-09-07T03:16:22;101832.41;;;26.26;100.00
73240;BME280;61452;40.054;4.110;2023-09-07T03:21:24;101836.22;;;26.24;100.00
73240;BME280;61452;40.054;4.110;2023-09-07T03:26:32;101841.59;;;26.24;100.00
73240;BME280;61452;40.054;4.110;2023-09-07T03:31:34;101832.97;;;26.20;100.00
73240;BME280;61452;40.054;4.110;2023-09-07T03:36:36;101840.91;;;26.22;100.00
73240;BME280;61452;40.054;4.110;2023-09-07T03:41:39;101847.13;;;26.22;100.00
73240;BME280;61452;40.054;4.110;2023-09-07T03:46:41;101855.06;;;26.24;100.00
73240;BME280;61452;40.054;4.110;2023-09-07T03:51:44;101859.72;;;26.22;100.00
73240;BME280;61452;40.054;4.110;2023-09-07T03:56:46;101860.56;;;26.22;100.00
73240;BME280;61452;40.054;4.110;2023-09-07T04:01:48;101855.19;;;26.22;100.00
73240;BME280;61452;40.054;4.110;2023-09-07T04:06:51;101850.94;;;26.19;100.00
73240;BME280;61452;40.054;4.110;2023-09-07T04:11:53;101852.78;;;26.19;100.00
73240;BME280;61452;40.054;4.110;2023-09-07T04:16:55;101845.72;;;26.18;100.00
73240;BME280;61452;40.054;4.110;2023-09-07T04:21:58;101854.63;;;26.18;100.00
73240;BME280;61452;40.054;4.110;2023-09-07T04:27:01;101838.50;;;26.18;100.00
73240;BME280;61452;40.054;4.110;2023-09-07T04:32:05;101844.72;;;26.19;100.00
73240;BME280;61452;40.054;4.110;2023-09-07T04:37:07;101840.31;;;26.18;100.00
73240;BME280;61452;40.054;4.110;2023-09-07T04:42:13;101849.56;;;26.15;100.00
73240;BME280;61452;40.054;4.110;2023-09-07T04:47:15;101846.03;;;26.15;100.00
73240;BME280;61452;40.054;4.110;2023-09-07T04:52:18;101864.16;;;26.13;100.00
73240;BME280;61452;40.054;4.110;2023-09-07T04:57:21;101860.47;;;26.14;100.00
73240;BME280;61452;40.054;4.110;2023-09-07T05:02:24;101862.16;;;26.15;100.00
73240;BME280;61452;40.054;4.110;2023-09-07T05:07:27;101864.84;;;26.15;100.00
73240;BME280;61452;40.054;4.110;2023-09-07T05:12:30;101872.78;;;26.16;100.00
73240;BME280;61452;40.054;4.110;2023-09-07T05:17:32;101870.38;;;26.13;100.00
73240;BME280;61452;40.054;4.110;2023-09-07T05:22:36;101874.06;;;26.12;100.00
73240;BME280;61452;40.054;4.110;2023-09-07T05:27:42;101881.13;;;26.13;100.00
73240;BME280;61452;40.054;4.110;2023-09-07T05:32:45;101877.72;;;26.11;100.00
73240;BME280;61452;40.054;4.110;2023-09-07T05:37:47;101886.66;;;26.12;100.00
73240;BME280;61452;40.054;4.110;2023-09-07T05:42:51;101886.97;;;26.09;100.00
73240;BME280;61452;40.054;4.110;2023-09-07T05:47:53;101887.63;;;26.11;100.00
73240;BME280;61452;40.054;4.110;2023-09-07T05:52:56;101893.19;;;26.09;100.00
73240;BME280;61452;40.054;4.110;2023-09-07T05:57:59;101895.03;;;26.09;100.00
73240;BME280;61452;40.054;4.110;2023-09-07T06:03:07;101896.03;;;26.08;100.00
73240;BME280;61452;40.054;4.110;2023-09-07T06:08:10;101902.25;;;26.08;100.00
73240;BME280;61452;40.054;4.110;2023-09-07T06:13:12;101910.47;;;26.07;100.00
73240;BME280;61452;40.054;4.110;2023-09-07T06:18:14;101913.16;;;26.07;100.00
73240;BME280;61452;40.054;4.110;2023-09-07T06:23:17;101915.84;;;26.07;100.00
73240;BME280;61452;40.054;4.110;2023-09-07T06:28:19;101915.84;;;26.07;100.00
73240;BME280;61452;40.054;4.110;2023-09-07T06:33:22;101916.81;;;26.06;100.00
73240;BME280;61452;40.054;4.110;2023-09-07T06:38:24;101914.97;;;26.06;100.00
73240;BME280;61452;40.054;4.110;2023-09-07T06:43:26;101925.75;;;26.06;100.00
73240;BME280;61452;40.054;4.110;2023-09-07T06:48:30;101915.84;;;26.07;100.00
73240;BME280;61452;40.054;4.110;2023-09-07T06:53:34;101924.75;;;26.07;100.00
73240;BME280;61452;40.054;4.110;2023-09-07T06:58:57;101924.91;;;26.06;100.00
73240;BME280;61452;40.054;4.110;2023-09-07T07:03:59;101929.00;;;26.10;100.00
73240;BME280;61452;40.054;4.110;2023-09-07T07:09:02;101934.53;;;26.08;100.00
73240;BME280;61452;40.054;4.110;2023-09-07T07:14:04;101931.13;;;26.06;100.00
73240;BME280;61452;40.054;4.110;2023-09-07T07:19:06;101939.19;;;26.06;100.00
73240;BME280;61452;40.054;4.110;2023-09-07T07:24:09;101928.28;;;26.08;100.00
73240;BME280;61452;40.054;4.110;2023-09-07T07:29:11;101937.22;;;26.08;100.00
73240;BME280;61452;40.054;4.110;2023-09-07T07:34:14;101936.34;;;26.08;100.00
73240;BME280;61452;40.054;4.110;2023-09-07T07:39:17;101943.59;;;26.07;100.00
73240;BME280;61452;40.054;4.110;2023-09-07T07:44:19;101945.41;;;26.07;100.00
73240;BME280;61452;40.054;4.110;2023-09-07T07:49:23;101948.97;;;26.07;100.00
73240;BME280;61452;40.054;4.110;2023-09-07T07:54:26;101957.03;;;26.07;100.00
73240;BME280;61452;40.054;4.110;2023-09-07T07:59:29;101948.97;;;26.07;100.00
73240;BME280;61452;40.054;4.110;2023-09-07T08:04:32;101957.75;;;26.09;100.00
73240;BME280;61452;40.054;4.110;2023-09-07T08:09:36;101954.88;;;26.11;100.00
73240;BME280;61452;40.054;4.110;2023-09-07T08:14:38;101959.56;;;26.09;100.00
73240;BME280;61452;40.054;4.110;2023-09-07T08:19:41;101962.41;;;26.07;100.00
73240;BME280;61452;40.054;4.110;2023-09-07T08:24:45;101981.09;;;26.09;100.00
73240;BME280;61452;40.054;4.110;2023-09-07T08:29:50;101973.88;;;26.09;100.00
73240;BME280;61452;40.054;4.110;2023-09-07T08:34:53;101972.44;;;26.05;100.00
73240;BME280;61452;40.054;4.110;2023-09-07T08:39:59;101991.00;;;26.08;100.00
73240;BME280;61452;40.054;4.110;2023-09-07T08:45:02;101992.69;;;26.09;100.00
73240;BME280;61452;40.054;4.110;2023-09-07T08:50:08;101986.47;;;26.09;100.00
73240;BME280;61452;40.054;4.110;2023-09-07T08:55:12;101985.63;;;26.08;100.00
73240;BME280;61452;40.054;4.110;2023-09-07T09:00:15;101988.16;;;26.10;100.00
73240;BME280;61452;40.054;4.110;2023-09-07T09:05:19;101989.16;;;26.09;100.00
73240;BME280;61452;40.054;4.110;2023-09-07T09:10:21;101988.16;;;26.10;100.00
73240;BME280;61452;40.054;4.110;2023-09-07T09:15:23;101991.72;;;26.10;100.00
73240;BME280;61452;40.054;4.110;2023-09-07T09:20:26;101993.56;;;26.10;100.00
73240;BME280;61452;40.054;4.110;2023-09-07T09:25:31;101995.22;;;26.11;100.00
73240;BME280;61452;40.054;4.110;2023-09-07T09:30:33;101997.91;;;26.11;100.00
73240;BME280;61452;40.054;4.110;2023-09-07T09:35:37;101996.91;;;26.12;100.00
73240;BME280;61452;40.054;4.110;2023-09-07T09:40:40;101989.69;;;26.12;100.00
73240;BME280;61452;40.054;4.110;2023-09-07T09:45:42;101994.09;;;26.13;100.00
73240;BME280;61452;40.054;4.110;2023-09-07T09:50:46;101994.81;;;26.15;100.00
73240;BME280;61452;40.054;4.110;2023-09-07T09:55:50;101982.34;;;26.14;100.00
73240;BME280;61452;40.054;4.110;2023-09-07T10:00:57;101990.41;;;26.14;100.00
73240;BME280;61452;40.054;4.110;2023-09-07T10:06:10;101990.56;;;26.13;100.00
73240;BME280;61452;40.054;4.110;2023-09-07T10:11:13;101990.41;;;26.14;100.00
73240;BME280;61452;40.054;4.110;2023-09-07T10:16:15;101984.03;;;26.15;100.00
73240;BME280;61452;40.054;4.110;2023-09-07T10:21:18;101983.19;;;26.15;100.00
73240;BME280;61452;40.054;4.110;2023-09-07T10:26:20;101989.44;;;26.15;100.00
73240;BME280;61452;40.054;4.110;2023-09-07T10:31:25;101988.44;;;26.16;100.00
73240;BME280;61452;40.054;4.110;2023-09-07T10:36:45;101995.66;;;26.16;100.00
73240;BME280;61452;40.054;4.110;2023-09-07T10:41:48;101988.44;;;26.16;100.00
73240;BME280;61452;40.054;4.110;2023-09-07T10:46:50;101979.34;;;26.17;100.00
73240;BME280;61452;40.054;4.110;2023-09-07T10:51:52;101982.03;;;26.17;100.00
73240;BME280;61452;40.054;4.110;2023-09-07T10:56:55;101976.81;;;26.16;100.00
73240;BME280;61452;40.054;4.110;2023-09-07T11:02:06;101966.06;;;26.16;100.00
73240;BME280;61452;40.054;4.110;2023-09-07T11:07:08;101967.75;;;26.17;100.00
73240;BME280;61452;40.054;4.110;2023-09-07T11:12:14;101964.22;;;26.16;100.00
73240;BME280;61452;40.054;4.110;2023-09-07T11:17:26;101970.44;;;26.17;100.00
73240;BME280;61452;40.054;4.110;2023-09-07T11:22:29;101967.59;;;26.18;100.00
73240;BME280;61452;40.054;4.110;2023-09-07T11:27:32;101960.69;;;26.16;100.00
73240;BME280;61452;40.054;4.110;2023-09-07T11:32:35;101955.31;;;26.16;100.00
73240;BME280;61452;40.054;4.110;2023-09-07T11:37:37;101948.09;;;26.16;100.00
73240;BME280;61452;40.054;4.110;2023-09-07T11:42:40;101955.00;;;26.19;100.00
73240;BME280;61452;40.054;4.110;2023-09-07T11:47:43;101958.69;;;26.18;100.00
73240;BME280;61452;40.054;4.110;2023-09-07T11:52:45;101950.47;;;26.19;100.00
73240;BME280;61452;40.054;4.110;2023-09-07T11:57:48;101952.16;;;26.21;100.00
73240;BME280;61452;40.054;4.110;2023-09-07T12:02:50;101946.66;;;26.22;100.00
73240;BME280;61452;40.054;4.110;2023-09-07T12:07:52;101949.47;;;26.21;100.00
73240;BME280;61452;40.054;4.110;2023-09-07T12:12:55;101957.41;;;26.22;100.00
73240;BME280;61452;40.054;4.110;2023-09-07T12:17:57;101961.94;;;26.22;100.00
73240;BME280;61452;40.054;4.110;2023-09-07T12:23:00;101954.59;;;26.24;100.00
73240;BME280;61452;40.054;4.110;2023-09-07T12:28:04;101949.19;;;26.24;100.00
73240;BME280;61452;40.054;4.110;2023-09-07T12:33:06;101943.97;;;26.22;100.00
73240;BME280;61452;40.054;4.110;2023-09-07T12:38:08;101941.28;;;26.22;100.00
73240;BME280;61452;40.054;4.110;2023-09-07T12:43:13;101937.56;;;26.23;100.00
73240;BME280;61452;40.054;4.110;2023-09-07T12:48:15;101936.75;;;26.23;100.00
73240;BME280;61452;40.054;4.110;2023-09-07T12:53:17;101927.69;;;26.24;100.00
73240;BME280;61452;40.054;4.110;2023-09-07T12:58:21;101934.75;;;26.25;100.00
73240;BME280;61452;40.054;4.110;2023-09-07T13:03:23;101931.22;;;26.24;100.00
73240;BME280;61452;40.054;4.110;2023-09-07T13:08:26;101924.84;;;26.25;100.00
73240;BME280;61452;40.054;4.110;2023-09-07T13:13:28;101927.25;;;26.28;100.00
73240;BME280;61452;40.054;4.110;2023-09-07T13:18:31;101913.09;;;26.26;100.00
73240;BME280;61452;40.054;4.110;2023-09-07T13:23:34;101906.88;;;26.26;100.00
73240;BME280;61452;40.054;4.110;2023-09-07T13:28:36;101908.56;;;26.27;100.00
73240;BME280;61452;40.054;4.110;2023-09-07T13:33:38;101903.19;;;26.27;100.00
73240;BME280;61452;40.054;4.110;2023-09-07T13:38:40;101904.03;;;26.27;100.00
73240;BME280;61452;40.054;4.110;2023-09-07T13:43:43;101900.50;;;26.27;100.00
73240;BME280;61452;40.054;4.110;2023-09-07T13:48:45;101894.28;;;26.26;100.00
73240;BME280;61452;40.054;4.110;2023-09-07T13:53:47;101895.97;;;26.27;100.00
73240;BME280;61452;40.054;4.110;2023-09-07T13:58:51;101895.97;;;26.27;100.00
73240;BME280;61452;40.054;4.110;2023-09-07T14:03:54;101889.59;;;26.28;100.00
73240;BME280;61452;40.054;4.110;2023-09-07T14:08:57;101885.91;;;26.29;100.00
73240;BME280;61452;40.054;4.110;2023-09-07T14:14:00;101892.81;;;26.32;100.00
73240;BME280;61452;40.054;4.110;2023-09-07T14:19:02;101899.19;;;26.31;100.00
73240;BME280;61452;40.054;4.110;2023-09-07T14:24:04;101896.69;;;26.29;100.00
73240;BME280;61452;40.054;4.110;2023-09-07T14:29:07;101888.59;;;26.29;100.00
73240;BME280;61452;40.054;4.110;2023-09-07T14:34:13;101894.81;;;26.30;100.00
73240;BME280;61452;40.054;4.110;2023-09-07T14:39:15;101890.28;;;26.30;100.00
73240;BME280;61452;40.054;4.110;2023-09-07T14:44:20;101891.97;;;26.31;100.00
73240;BME280;61452;40.054;4.110;2023-09-07T14:49:22;101888.44;;;26.31;100.00
73240;BME280;61452;40.054;4.110;2023-09-07T14:54:24;101887.59;;;26.30;100.00
73240;BME280;61452;40.054;4.110;2023-09-07T14:59:27;101894.66;;;26.31;100.00
73240;BME280;61452;40.054;4.110;2023-09-07T15:04:29;101896.34;;;26.32;100.00
73240;BME280;61452;40.054;4.110;2023-09-07T15:09:31;101896.22;;;26.34;100.00
73240;BME280;61452;40.054;4.110;2023-09-07T15:14:33;101889.13;;;26.33;100.00
73240;BME280;61452;40.054;4.110;2023-09-07T15:19:36;101889.13;;;26.33;100.00
73240;BME280;61452;40.054;4.110;2023-09-07T15:24:38;101877.53;;;26.32;100.00
73240;BME280;61452;40.054;4.110;2023-09-07T15:29:40;101878.38;;;26.33;100.00
73240;BME280;61452;40.054;4.110;2023-09-07T15:34:43;101879.38;;;26.32;100.00
73240;BME280;61452;40.054;4.110;2023-09-07T15:39:45;101872.00;;;26.34;100.00
73240;BME280;61452;40.054;4.110;2023-09-07T15:44:47;101873.84;;;26.33;100.00
73240;BME280;61452;40.054;4.110;2023-09-07T15:49:51;101865.78;;;26.33;100.00
73240;BME280;61452;40.054;4.110;2023-09-07T15:54:54;101880.06;;;26.34;100.00
73240;BME280;61452;40.054;4.110;2023-09-07T15:59:56;101873.84;;;26.33;100.00
73240;BME280;61452;40.054;4.110;2023-09-07T16:05:02;101875.53;;;26.34;100.00
73240;BME280;61452;40.054;4.110;2023-09-07T16:10:05;101880.06;;;26.34;100.00
73240;BME280;61452;40.054;4.110;2023-09-07T16:15:08;101881.78;;;26.35;100.00
73240;BME280;61452;40.054;4.110;2023-09-07T16:20:10;101877.38;;;26.34;100.00
73240;BME280;61452;40.054;4.110;2023-09-07T16:25:13;101877.38;;;26.34;100.00
73240;BME280;61452;40.054;4.110;2023-09-07T16:30:16;101862.09;;;26.34;100.00
73240;BME280;61452;40.054;4.110;2023-09-07T16:35:18;101863.69;;;26.27;100.00
73240;BME280;61452;40.054;4.110;2023-09-07T16:40:20;101852.31;;;26.33;100.00
73240;BME280;61452;40.054;4.110;2023-09-07T16:45:22;101854.03;;;26.34;100.00
73240;BME280;61452;40.054;4.110;2023-09-07T16:50:25;101857.72;;;26.33;100.00
73240;BME280;61452;40.054;4.110;2023-09-07T16:55:27;101863.09;;;26.33;100.00
73240;BME280;61452;40.054;4.110;2023-09-07T17:00:29;101860.25;;;26.35;100.00
73240;BME280;61452;40.054;4.110;2023-09-07T17:05:32;101869.16;;;26.35;100.00
73240;BME280;61452;40.054;4.110;2023-09-07T17:10:38;101872.47;;;26.29;100.00
73240;BME280;61452;40.054;4.110;2023-09-07T17:15:40;101862.13;;;26.25;100.00
73240;BME280;61452;40.054;4.110;2023-09-07T17:20:42;101862.00;;;26.26;100.00
73240;BME280;61452;40.054;4.110;2023-09-07T17:25:44;101861.84;;;26.28;100.00
73240;BME280;61452;40.054;4.110;2023-09-07T17:30:47;101862.84;;;26.27;100.00
73240;BME280;61452;40.054;4.110;2023-09-07T17:35:49;101866.53;;;26.26;100.00
73240;BME280;61452;40.054;4.110;2023-09-07T17:40:55;101870.19;;;26.25;100.00
73240;BME280;61452;40.054;4.110;2023-09-07T17:45:57;101874.72;;;26.24;100.00
73240;BME280;61452;40.054;4.110;2023-09-07T17:51:00;101871.63;;;26.29;100.00
73240;BME280;61452;40.054;4.110;2023-09-07T17:56:09;101872.16;;;26.32;100.00
73240;BME280;61452;40.054;4.110;2023-09-07T18:01:16;101869.31;;;26.34;100.00
73240;BME280;61452;40.054;4.110;2023-09-07T18:06:19;101865.47;;;26.36;100.00
73240;BME280;61452;40.054;4.110;2023-09-07T18:11:21;101873.84;;;26.33;100.00
73240;BME280;61452;40.054;4.110;2023-09-07T18:16:23;101868.16;;;26.36;100.00
73240;BME280;61452;40.054;4.110;2023-09-07T18:21:26;101872.84;;;26.34;100.00
73240;BME280;61452;40.054;4.110;2023-09-07T18:26:28;101880.75;;;26.36;100.00
73240;BME280;61452;40.054;4.110;2023-09-07T18:31:32;101875.53;;;26.34;100.00
73240;BME280;61452;40.054;4.110;2023-09-07T18:36:34;101877.25;;;26.35;100.00
73240;BME280;61452;40.054;4.110;2023-09-07T18:41:36;101876.41;;;26.35;100.00
73240;BME280;61452;40.054;4.110;2023-09-07T18:46:38;101876.53;;;26.33;100.00
73240;BME280;61452;40.054;4.110;2023-09-07T18:51:43;101882.63;;;26.35;100.00
73240;BME280;61452;40.054;4.110;2023-09-07T18:56:45;101882.78;;;26.34;100.00
73240;BME280;61452;40.054;4.110;2023-09-07T19:01:48;101887.44;;;26.32;100.00
73240;BME280;61452;40.054;4.110;2023-09-07T19:06:50;101898.06;;;26.33;100.00
73240;BME280;61452;40.054;4.110;2023-09-07T19:11:53;101907.84;;;26.34;100.00
73240;BME280;61452;40.054;4.110;2023-09-07T19:16:55;101916.91;;;26.33;100.00
73240;BME280;61452;40.054;4.110;2023-09-07T19:21:57;101914.19;;;26.33;100.00
73240;BME280;61452;40.054;4.110;2023-09-07T19:27:01;101915.19;;;26.32;100.00
73240;BME280;61452;40.054;4.110;2023-09-07T19:32:04;101917.34;;;26.29;100.00
73240;BME280;61452;40.054;4.110;2023-09-07T19:37:06;101914.09;;;26.25;100.00
73240;BME280;61452;40.054;4.110;2023-09-07T19:42:09;101919.34;;;26.27;100.00
73240;BME280;61452;40.054;4.110;2023-09-07T19:47:13;101917.50;;;26.27;100.00
73240;BME280;61452;40.054;4.110;2023-09-07T19:52:16;101918.34;;;26.28;100.00
73240;BME280;61452;40.054;4.110;2023-09-07T19:57:18;101922.03;;;26.27;100.00
73240;BME280;61452;40.054;4.110;2023-09-07T20:02:20;101935.59;;;26.25;100.00
73240;BME280;61452;40.054;4.110;2023-09-07T20:07:23;101929.09;;;26.28;100.00
73240;BME280;61452;40.054;4.110;2023-09-07T20:12:25;101925.84;;;26.24;100.00
73240;BME280;61452;40.054;4.110;2023-09-07T20:17:30;101930.22;;;26.25;100.00
73240;BME280;61452;40.054;4.110;2023-09-07T20:22:36;101930.94;;;26.27;100.00
73240;BME280;61452;40.054;4.110;2023-09-07T20:27:38;101934.47;;;26.28;100.00
73240;BME280;61452;40.054;4.110;2023-09-07T20:32:41;101934.47;;;26.28;100.00
73240;BME280;61452;40.054;4.110;2023-09-07T20:37:43;101935.34;;;26.28;100.00
73240;BME280;61452;40.054;4.110;2023-09-07T20:42:45;101931.78;;;26.28;100.00
73240;BME280;61452;40.054;4.110;2023-09-07T20:47:51;101932.91;;;26.25;100.00
73240;BME280;61452;40.054;4.110;2023-09-07T20:52:53;101939.16;;;26.26;100.00
73240;BME280;61452;40.054;4.110;2023-09-07T20:57:55;101938.31;;;26.25;100.00
73240;BME280;61452;40.054;4.110;2023-09-07T21:02:58;101938.31;;;26.25;100.00
73240;BME280;61452;40.054;4.110;2023-09-07T21:08:00;101933.91;;;26.24;100.00
73240;BME280;61452;40.054;4.110;2023-09-07T21:13:05;101929.50;;;26.23;100.00
73240;BME280;61452;40.054;4.110;2023-09-07T21:18:07;101925.00;;;26.24;100.00
73240;BME280;61452;40.054;4.110;2023-09-07T21:23:12;101920.03;;;26.19;100.00
73240;BME280;61452;40.054;4.110;2023-09-07T21:28:14;101918.06;;;26.21;100.00
73240;BME280;61452;40.054;4.110;2023-09-07T21:33:17;101913.66;;;26.20;100.00
73240;BME280;61452;40.054;4.110;2023-09-07T21:38:19;101915.50;;;26.19;100.00
73240;BME280;61452;40.054;4.110;2023-09-07T21:43:22;101913.66;;;26.20;100.00
73240;BME280;61452;40.054;4.110;2023-09-07T21:48:25;101911.81;;;26.21;100.00
73240;BME280;61452;40.054;4.110;2023-09-07T21:53:29;101907.16;;;26.23;100.00
73240;BME280;61452;40.054;4.110;2023-09-07T21:58:31;101915.22;;;26.23;100.00
73240;BME280;61452;40.054;4.110;2023-09-07T22:03:34;101903.03;;;26.18;100.00
73240;BME280;61452;40.054;4.110;2023-09-07T22:08:36;101904.88;;;26.18;100.00
73240;BME280;61452;40.054;4.110;2023-09-07T22:13:38;101909.59;;;26.16;100.00
73240;BME280;61452;40.054;4.110;2023-09-07T22:18:41;101897.13;;;26.15;100.00
73240;BME280;61452;40.054;4.110;2023-09-07T22:23:43;101891.75;;;26.15;100.00
73240;BME280;61452;40.054;4.110;2023-09-07T22:28:45;101886.50;;;26.13;100.00
73240;BME280;61452;40.054;4.110;2023-09-07T22:33:47;101885.66;;;26.13;100.00
73240;BME280;61452;40.054;4.110;2023-09-07T22:38:49;101888.91;;;26.16;100.00
73240;BME280;61452;40.054;4.110;2023-09-07T22:43:52;101881.84;;;26.15;100.00
73240;BME280;61452;40.054;4.110;2023-09-07T22:48:54;101882.81;;;26.14;100.00
73240;BME280;61452;40.054;4.110;2023-09-07T22:53:56;101881.84;;;26.15;100.00
73240;BME280;61452;40.054;4.110;2023-09-07T22:58:58;101886.66;;;26.12;100.00
73240;BME280;61452;40.054;4.110;2023-09-07T23:04:01;101883.97;;;26.12;100.00
73240;BME280;61452;40.054;4.110;2023-09-07T23:09:05;101884.13;;;26.10;100.00
73240;BME280;61452;40.054;4.110;2023-09-07T23:14:08;101887.09;;;26.07;100.00
73240;BME280;61452;40.054;4.110;2023-09-07T23:19:11;101880.59;;;26.10;100.00
73240;BME280;61452;40.054;4.110;2023-09-07T23:24:16;101878.75;;;26.10;100.00
73240;BME280;61452;40.054;4.110;2023-09-07T23:29:19;101883.41;;;26.08;100.00
73240;BME280;61452;40.054;4.110;2023-09-07T23:34:22;101879.88;;;26.08;100.00
73240;BME280;61452;40.054;4.110;2023-09-07T23:39:25;101880.72;;;26.08;100.00
73240;BME280;61452;40.054;4.110;2023-09-07T23:44:27;101883.41;;;26.08;100.00
73240;BME280;61452;40.054;4.110;2023-09-07T23:49:30;101884.28;;;26.09;100.00
73240;BME280;61452;40.054;4.110;2023-09-07T23:54:33;101880.72;;;26.08;100.00
73240;BME280;61452;40.054;4.110;2023-09-07T23:59:35;101868.13;;;26.09;100.00
